Time;durP1;ratioP1;P1;durP2;ratioP2;P2;SDS_P1;SDS_P2;PMS_P1;PMS_P2;Temp;Humidity;BMP_temperature;BMP_pressure;BME280_temperature;BME280_humidity;BME280_pressure;Samples;Min_cycle;Max_cycle;Signal;HPM_P1;HPM_P2
2021/04/19 00:00:03;;;;;;;1.83;1.58;;;;;;;24.07;42.61;98597.31;5100460;28;20297;-64
2021/04/19 00:02:30;;;;;;;3.97;1.80;;;;;;;24.06;43.34;98590.31;5111507;27;20215;-65
2021/04/19 00:04:56;;;;;;;3.15;1.80;;;;;;;24.04;42.68;98589.63;5098715;28;20209;-64
2021/04/19 00:07:22;;;;;;;2.28;1.58;;;;;;;24.04;42.67;98588.81;5099842;28;20274;-62
2021/04/19 00:09:48;;;;;;;2.83;1.90;;;;;;;24.02;43.58;98591.66;5091360;28;20202;-63
2021/04/19 00:12:15;;;;;;;2.63;1.83;;;;;;;24.00;43.38;98591.00;5097892;28;20573;-63
2021/04/19 00:14:41;;;;;;;3.40;1.70;;;;;;;23.98;42.66;98593.81;5098583;28;20295;-58
2021/04/19 00:17:07;;;;;;;3.47;1.63;;;;;;;23.97;43.10;98591.31;5097564;28;20289;-64
2021/04/19 00:19:34;;;;;;;2.38;1.80;;;;;;;23.94;43.64;98586.31;5102891;28;20213;-62
2021/04/19 00:22:00;;;;;;;2.90;1.63;;;;;;;23.92;42.96;98589.13;5104143;27;20212;-63
2021/04/19 00:24:26;;;;;;;3.00;1.88;;;;;;;23.90;42.74;98590.28;5099646;28;20825;-64
2021/04/19 00:26:52;;;;;;;3.50;1.85;;;;;;;23.90;43.56;98580.47;5106829;27;20194;-63
2021/04/19 00:29:18;;;;;;;3.60;1.98;;;;;;;23.87;43.30;98585.31;5113959;27;20850;-63
2021/04/19 00:31:44;;;;;;;3.37;1.90;;;;;;;23.85;42.73;98580.13;5108448;27;20285;-64
2021/04/19 00:34:11;;;;;;;2.17;1.77;;;;;;;23.85;42.72;98587.28;5121110;27;20209;-64
2021/04/19 00:36:37;;;;;;;4.07;2.03;;;;;;;23.83;43.74;98582.09;5108319;27;20246;-63
2021/04/19 00:39:04;;;;;;;3.90;1.88;;;;;;;23.82;43.45;98580.47;5092406;27;20198;-63
2021/04/19 00:41:31;;;;;;;3.38;1.65;;;;;;;23.80;43.58;98571.75;5096669;28;20228;-63
2021/04/19 00:43:57;;;;;;;4.18;1.90;;;;;;;23.78;43.67;98576.41;5104136;28;20273;-66
2021/04/19 00:46:23;;;;;;;2.47;2.00;;;;;;;23.76;42.74;98565.88;5098295;28;20227;-65
2021/04/19 00:48:49;;;;;;;3.33;1.83;;;;;;;23.76;43.59;98568.56;5103004;28;20201;-59
2021/04/19 00:51:16;;;;;;;2.70;1.67;;;;;;;23.74;43.71;98567.06;5103369;28;20478;-64
2021/04/19 00:53:43;;;;;;;2.85;1.63;;;;;;;23.72;42.88;98567.22;5111682;28;20201;-64
2021/04/19 00:56:10;;;;;;;2.60;1.70;;;;;;;23.71;43.90;98564.72;5105056;28;20197;-63
2021/04/19 00:58:40;;;;;;;2.95;1.90;;;;;;;23.70;43.66;98557.72;5103050;28;20197;-64
2021/04/19 01:01:07;;;;;;;2.10;1.70;;;;;;;23.68;42.75;98560.56;5106243;28;20632;-64
2021/04/19 01:03:34;;;;;;;3.28;1.77;;;;;;;23.67;43.08;98560.72;5111265;27;20206;-62
2021/04/19 01:06:00;;;;;;;5.50;2.20;;;;;;;23.65;43.37;98564.38;5105105;28;20501;-64
2021/04/19 01:08:26;;;;;;;4.68;2.25;;;;;;;23.63;43.17;98562.88;5096492;28;20619;-63
2021/04/19 01:10:53;;;;;;;5.82;2.00;;;;;;;23.60;42.38;98561.38;5105285;28;20239;-64
2021/04/19 01:13:19;;;;;;;4.30;2.20;;;;;;;23.60;42.59;98561.38;5104322;28;20294;-64
2021/04/19 01:15:45;;;;;;;3.63;2.00;;;;;;;23.58;42.27;98565.19;5108905;28;20271;-65
2021/04/19 01:18:11;;;;;;;5.05;1.90;;;;;;;23.56;42.38;98560.03;5117879;27;20296;-64
2021/04/19 01:20:39;;;;;;;3.15;1.88;;;;;;;23.54;43.12;98562.03;5109455;27;21008;-63
2021/04/19 01:23:05;;;;;;;4.07;1.98;;;;;;;23.52;43.23;98558.69;5107203;28;20193;-64
2021/04/19 01:25:32;;;;;;;4.20;2.10;;;;;;;23.50;42.43;98558.03;5109333;27;20201;-64
2021/04/19 01:27:58;;;;;;;5.68;2.40;;;;;;;23.47;43.18;98558.38;5109630;28;20205;-64
2021/04/19 01:30:28;;;;;;;6.22;2.20;;;;;;;23.47;42.83;98553.03;5107906;27;20380;-64
2021/04/19 01:32:54;;;;;;;4.03;1.85;;;;;;;23.44;42.99;98558.69;5105542;28;20686;-64
2021/04/19 01:35:20;;;;;;;3.80;1.77;;;;;;;23.42;43.13;98552.69;5107791;28;20293;-61
2021/04/19 01:37:47;;;;;;;3.20;1.73;;;;;;;23.41;43.33;98554.50;5105511;28;20293;-63
2021/04/19 01:40:15;;;;;;;5.05;2.00;;;;;;;23.41;43.37;98554.50;5107724;28;20240;-64
2021/04/19 01:42:41;;;;;;;4.45;2.25;;;;;;;23.39;42.84;98555.69;5110385;27;20319;-66
2021/04/19 01:45:09;;;;;;;6.35;2.13;;;;;;;23.37;43.13;98558.50;5106124;27;20346;-64
2021/04/19 01:47:35;;;;;;;3.63;2.00;;;;;;;23.36;43.55;98558.66;5100022;28;20206;-64
2021/04/19 01:50:07;;;;;;;5.22;1.92;;;;;;;23.34;42.52;98558.00;5103038;27;20729;-64
2021/04/19 01:52:33;;;;;;;7.38;1.88;;;;;;;23.33;42.89;98549.16;5103015;27;20225;-64
2021/04/19 01:55:00;;;;;;;4.53;1.92;;;;;;;23.33;43.56;98543.84;5107092;28;20216;-63
2021/04/19 01:57:27;;;;;;;3.67;2.00;;;;;;;23.32;43.69;98544.81;5108309;27;20380;-63
2021/04/19 01:59:53;;;;;;;4.07;2.10;;;;;;;23.30;43.06;98545.97;5097351;27;20215;-63
2021/04/19 02:02:22;;;;;;;5.60;2.00;;;;;;;23.31;42.81;98547.66;5105481;28;20202;-64
2021/04/19 02:04:56;;;;;;;3.63;1.90;;;;;;;23.30;42.53;98540.63;5106958;28;20728;-64
2021/04/19 02:07:27;;;;;;;2.75;1.67;;;;;;;23.30;42.83;98543.31;5105447;28;20196;-64
2021/04/19 02:10:01;;;;;;;4.05;2.20;;;;;;;23.28;42.71;98547.00;5101828;27;20266;-63
2021/04/19 02:12:38;;;;;;;3.05;1.80;;;;;;;23.26;42.56;98541.00;5102936;28;20773;-63
2021/04/19 02:15:10;;;;;;;2.95;2.00;;;;;;;23.26;42.84;98537.47;5097358;28;20208;-63
2021/04/19 02:17:45;;;;;;;3.97;1.70;;;;;;;23.26;43.58;98534.78;5102362;27;20213;-63
2021/04/19 02:20:15;;;;;;;3.78;1.70;;;;;;;23.25;42.70;98533.16;5108222;28;20276;-62
2021/04/19 02:22:45;;;;;;;3.20;2.10;;;;;;;23.24;42.72;98536.81;5102280;27;20272;-64
2021/04/19 02:25:17;;;;;;;5.90;1.83;;;;;;;23.25;43.23;98527.81;5100165;28;20282;-63
2021/04/19 02:27:47;;;;;;;7.20;2.53;;;;;;;23.24;43.58;98531.47;5104727;28;20208;-63
2021/04/19 02:30:16;;;;;;;5.00;2.45;;;;;;;23.23;43.59;98525.31;5105475;28;20693;-62
2021/04/19 02:32:46;;;;;;;4.00;1.88;;;;;;;23.23;43.34;98527.97;5106966;27;20338;-63
2021/04/19 02:35:16;;;;;;;2.90;1.85;;;;;;;23.21;42.90;98531.78;5093264;27;20281;-64
2021/04/19 02:37:43;;;;;;;4.60;1.98;;;;;;;23.20;43.27;98525.63;5105824;28;20284;-63
2021/04/19 02:40:11;;;;;;;3.20;1.95;;;;;;;23.20;42.52;98532.78;5093521;28;20217;-62
2021/04/19 02:42:40;;;;;;;4.72;1.77;;;;;;;23.19;43.04;98529.28;5104820;28;20334;-63
2021/04/19 02:45:09;;;;;;;4.28;2.00;;;;;;;23.18;43.17;98534.78;5103923;28;20185;-65
2021/04/19 02:47:39;;;;;;;3.47;1.83;;;;;;;23.19;43.70;98531.13;5103454;28;20695;-63
2021/04/19 02:50:07;;;;;;;3.10;1.77;;;;;;;23.19;43.50;98531.13;5105656;28;20258;-64
2021/04/19 02:52:34;;;;;;;2.80;1.70;;;;;;;23.18;43.52;98532.97;5106215;28;20221;-63
2021/04/19 02:55:01;;;;;;;3.70;1.70;;;;;;;23.17;43.28;98531.28;5104319;28;20209;-63
2021/04/19 02:57:28;;;;;;;4.03;1.90;;;;;;;23.15;43.29;98535.94;5102230;28;20219;-64
2021/04/19 02:59:56;;;;;;;4.22;1.77;;;;;;;23.15;43.36;98538.63;5103365;27;20593;-63
2021/04/19 03:02:26;;;;;;;2.67;1.80;;;;;;;23.14;43.50;98536.94;5106302;27;20201;-62
2021/04/19 03:04:53;;;;;;;3.22;2.20;;;;;;;23.15;43.27;98543.09;5104945;28;20197;-60
2021/04/19 03:07:25;;;;;;;3.85;1.95;;;;;;;23.13;43.26;98534.44;5104557;28;20618;-63
2021/04/19 03:09:55;;;;;;;3.17;1.80;;;;;;;23.13;42.99;98531.75;5107124;28;20639;-64
2021/04/19 03:12:26;;;;;;;3.33;2.10;;;;;;;23.11;42.51;98531.91;5107143;28;20213;-64
2021/04/19 03:14:58;;;;;;;3.10;2.05;;;;;;;23.09;43.37;98526.75;5101745;28;20202;-64
2021/04/19 03:17:26;;;;;;;3.28;2.08;;;;;;;23.09;43.47;98520.59;5106492;28;20255;-64
2021/04/19 03:19:58;;;;;;;2.80;1.95;;;;;;;23.07;43.61;98530.59;5106199;28;20335;-63
2021/04/19 03:22:26;;;;;;;6.35;1.95;;;;;;;23.07;43.53;98525.25;5112008;27;20205;-63
2021/04/19 03:24:54;;;;;;;2.42;1.80;;;;;;;23.05;42.59;98522.72;5097964;27;20201;-63
2021/04/19 03:27:22;;;;;;;4.50;1.92;;;;;;;23.06;42.71;98523.53;5105564;28;20304;-64
2021/04/19 03:29:49;;;;;;;3.35;1.90;;;;;;;23.05;43.72;98519.22;5102242;28;20316;-63
2021/04/19 03:32:20;;;;;;;3.08;1.92;;;;;;;23.04;43.52;98525.53;5105416;28;20366;-63
2021/04/19 03:34:47;;;;;;;4.03;2.15;;;;;;;23.03;42.63;98523.88;5105489;28;20290;-63
2021/04/19 03:37:18;;;;;;;3.63;2.38;;;;;;;23.01;42.63;98525.88;5106117;27;20296;-63
2021/04/19 03:39:48;;;;;;;3.53;1.83;;;;;;;22.99;43.46;98523.34;5097566;28;20190;-63
2021/04/19 03:42:16;;;;;;;4.20;2.50;;;;;;;23.01;42.87;98521.34;5109649;27;20209;-63
2021/04/19 03:44:45;;;;;;;5.07;2.05;;;;;;;23.02;43.30;98522.22;5087440;28;20235;-63
2021/04/19 03:47:12;;;;;;;3.45;1.85;;;;;;;23.03;42.24;98519.38;5098066;28;20227;-63
2021/04/19 03:49:49;;;;;;;5.22;2.10;;;;;;;23.03;43.24;98514.06;5106816;28;20239;-63
2021/04/19 03:52:21;;;;;;;3.15;2.20;;;;;;;23.04;42.89;98512.22;5099873;27;20653;-63
2021/04/19 03:54:50;;;;;;;4.25;1.98;;;;;;;23.04;42.41;98514.88;5096995;28;20193;-62
2021/04/19 03:57:20;;;;;;;2.95;1.90;;;;;;;23.05;42.42;98513.91;5101806;28;20351;-63
2021/04/19 03:59:50;;;;;;;3.97;1.90;;;;;;;23.07;42.69;98517.25;5103915;28;20308;-65
2021/04/19 04:02:18;;;;;;;6.05;2.10;;;;;;;23.05;43.47;98512.06;5097174;27;20840;-64
2021/04/19 04:04:45;;;;;;;3.22;1.95;;;;;;;23.07;42.38;98510.09;5108494;27;20210;-64
2021/04/19 04:07:14;;;;;;;3.33;2.15;;;;;;;23.06;42.47;98513.72;5105552;28;20598;-59
2021/04/19 04:09:41;;;;;;;2.95;1.98;;;;;;;23.07;43.42;98509.25;5107726;27;20670;-63
2021/04/19 04:12:09;;;;;;;2.80;1.65;;;;;;;23.08;43.26;98510.91;5105465;27;20223;-63
2021/04/19 04:14:35;;;;;;;3.30;2.00;;;;;;;23.08;43.04;98513.56;5106518;27;20283;-63
2021/04/19 04:17:01;;;;;;;3.05;1.80;;;;;;;23.09;42.51;98504.59;5104894;28;20209;-63
2021/04/19 04:19:27;;;;;;;4.38;1.92;;;;;;;23.09;42.88;98504.59;5104902;27;20278;-64
2021/04/19 04:21:54;;;;;;;3.53;2.03;;;;;;;23.08;42.39;98506.44;5104567;27;20225;-65
2021/04/19 04:24:20;;;;;;;5.25;1.90;;;;;;;23.08;43.47;98503.75;5104404;27;20197;-64
2021/04/19 04:26:47;;;;;;;4.20;1.90;;;;;;;23.09;43.28;98512.59;5092852;28;20260;-65
2021/04/19 04:29:14;;;;;;;2.67;1.98;;;;;;;23.09;42.50;98512.59;5104171;28;20201;-60
2021/04/19 04:31:40;;;;;;;3.63;2.00;;;;;;;23.08;42.70;98506.44;5104765;28;20684;-63
2021/04/19 04:34:06;;;;;;;4.03;2.00;;;;;;;23.08;42.86;98510.91;5105194;28;20257;-64
2021/04/19 04:36:32;;;;;;;2.58;1.83;;;;;;;23.09;43.32;98512.59;5102979;28;20273;-59
2021/04/19 04:38:58;;;;;;;3.33;1.80;;;;;;;23.10;43.09;98519.59;5094896;28;20470;-66
2021/04/19 04:41:24;;;;;;;3.00;1.92;;;;;;;23.09;43.16;98509.94;5101336;28;20235;-63
2021/04/19 04:43:55;;;;;;;2.63;1.73;;;;;;;23.10;43.05;98506.28;5103163;28;20312;-63
2021/04/19 04:46:27;;;;;;;2.53;1.77;;;;;;;23.09;42.87;98512.59;5101772;27;20205;-63
2021/04/19 04:49:00;;;;;;;2.85;1.88;;;;;;;23.10;42.26;98508.94;5099038;27;20301;-59
2021/04/19 04:51:28;;;;;;;5.22;2.40;;;;;;;23.10;42.83;98508.94;5105547;28;20229;-63
2021/04/19 04:53:56;;;;;;;3.20;1.95;;;;;;;23.11;43.18;98515.09;5093781;28;20213;-65
2021/04/19 04:56:25;;;;;;;3.05;1.83;;;;;;;23.11;42.79;98510.59;5102921;28;20201;-64
2021/04/19 04:58:55;;;;;;;4.38;2.10;;;;;;;23.12;43.31;98519.44;5104697;28;20210;-64
2021/04/19 05:01:22;;;;;;;3.97;1.92;;;;;;;23.11;42.79;98523.09;5104285;28;20220;-63
2021/04/19 05:03:49;;;;;;;2.60;1.73;;;;;;;23.11;43.07;98528.44;5085938;28;20232;-64
2021/04/19 05:06:17;;;;;;;2.85;1.77;;;;;;;23.11;43.42;98521.25;5107795;28;20236;-64
2021/04/19 05:08:44;;;;;;;4.80;1.90;;;;;;;23.11;42.72;98518.59;5103555;28;20303;-64
2021/04/19 05:11:12;;;;;;;4.15;1.80;;;;;;;23.12;42.72;98520.28;5108076;28;20219;-64
2021/04/19 05:13:39;;;;;;;5.07;2.20;;;;;;;23.13;42.33;98511.25;5094236;28;20229;-64
2021/04/19 05:16:06;;;;;;;4.00;1.98;;;;;;;23.13;42.67;98518.44;5095886;28;20224;-64
2021/04/19 05:18:33;;;;;;;3.05;1.80;;;;;;;23.15;42.47;98517.28;5104633;28;20289;-64
2021/04/19 05:20:59;;;;;;;4.07;2.10;;;;;;;23.14;42.91;98520.94;5103607;28;20351;-61
2021/04/19 05:23:25;;;;;;;4.93;2.42;;;;;;;23.11;43.22;98521.25;5104156;28;20812;-63
2021/04/19 05:25:51;;;;;;;11.23;2.97;;;;;;;23.09;43.68;98524.06;5106607;28;20202;-65
2021/04/19 05:28:19;;;;;;;22.50;3.65;;;;;;;23.06;43.87;98526.22;5103489;28;20213;-65
2021/04/19 05:30:46;;;;;;;15.02;3.80;;;;;;;23.09;44.15;98529.41;5097183;28;20253;-67
2021/04/19 05:33:12;;;;;;;14.82;4.15;;;;;;;23.12;44.42;98525.59;5100804;28;20221;-66
2021/04/19 05:35:39;;;;;;;18.13;3.83;;;;;;;23.17;44.99;98533.13;5103869;28;20443;-68
2021/04/19 05:38:06;;;;;;;15.88;4.28;;;;;;;23.19;45.38;98523.13;5096938;28;22060;-67
2021/04/19 05:40:34;;;;;;;12.27;3.67;;;;;;;23.24;45.21;98529.63;5092190;28;20660;-67
2021/04/19 05:43:02;;;;;;;13.40;3.28;;;;;;;23.28;44.50;98530.97;5105095;28;20289;-66
2021/04/19 05:45:29;;;;;;;18.23;3.80;;;;;;;23.35;43.60;98539.16;5100208;28;20292;-66
2021/04/19 05:47:56;;;;;;;13.23;3.35;;;;;;;23.41;44.36;98532.31;5093888;28;20343;-67
2021/04/19 05:50:26;;;;;;;11.85;3.50;;;;;;;23.46;43.71;98530.00;5097082;28;20262;-66
2021/04/19 05:52:53;;;;;;;18.20;3.83;;;;;;;23.46;42.97;98530.00;5102311;28;20297;-68
2021/04/19 05:55:22;;;;;;;10.30;3.58;;;;;;;23.49;43.58;98535.00;5104385;28;20296;-67
2021/04/19 05:57:53;;;;;;;17.23;3.22;;;;;;;23.53;43.17;98541.72;5104736;28;20206;-64
2021/04/19 06:00:21;;;;;;;11.38;3.55;;;;;;;23.58;44.22;98544.72;5100784;28;20279;-66
2021/04/19 06:02:55;;;;;;;14.32;3.17;;;;;;;23.56;43.23;98546.69;5106214;27;20197;-67
2021/04/19 06:05:28;;;;;;;13.63;3.15;;;;;;;23.64;43.31;98546.69;5110957;27;20203;-66
2021/04/19 06:08:02;;;;;;;12.90;2.90;;;;;;;23.71;42.88;98544.19;5104753;27;20218;-66
2021/04/19 06:10:33;;;;;;;11.63;2.92;;;;;;;23.74;42.86;98554.56;5103848;28;20252;-66
2021/04/19 06:13:01;;;;;;;9.45;3.13;;;;;;;23.69;43.92;98548.88;5096497;27;21024;-67
2021/04/19 06:15:28;;;;;;;23.63;3.45;;;;;;;23.67;44.53;98548.22;5105566;27;20208;-66
2021/04/19 06:17:57;;;;;;;24.60;3.22;;;;;;;23.68;45.28;98549.03;5105858;27;20201;-65
2021/04/19 06:20:23;;;;;;;18.65;3.55;;;;;;;23.69;45.71;98550.72;5100803;28;20252;-65
2021/04/19 06:22:51;;;;;;;15.95;3.60;;;;;;;23.75;44.50;98555.41;5099872;28;20662;-67
2021/04/19 06:25:19;;;;;;;9.85;3.05;;;;;;;23.79;45.39;98551.38;5102107;28;20217;-67
2021/04/19 06:27:46;;;;;;;11.70;3.08;;;;;;;23.83;44.96;98547.41;5103306;28;20230;-66
2021/04/19 06:30:15;;;;;;;14.45;3.10;;;;;;;23.86;45.36;98552.41;5107026;27;20266;-69
2021/04/19 06:32:43;;;;;;;15.70;3.40;;;;;;;23.89;44.44;98557.44;5098268;27;21029;-69
2021/04/19 06:35:10;;;;;;;7.90;2.53;;;;;;;23.91;44.62;98549.25;5112027;27;20280;-67
2021/04/19 06:37:36;;;;;;;13.57;3.58;;;;;;;23.93;44.20;98555.25;5108978;27;20295;-68
2021/04/19 06:40:06;;;;;;;12.80;2.78;;;;;;;23.94;43.88;98549.75;5106633;27;20253;-68
2021/04/19 06:42:34;;;;;;;13.07;2.83;;;;;;;23.97;44.26;98556.59;5110077;27;20267;-69
2021/04/19 06:45:01;;;;;;;6.80;2.70;;;;;;;23.99;44.47;98562.59;5105617;28;20208;-68
2021/04/19 06:47:29;;;;;;;9.07;2.95;;;;;;;24.01;44.09;98561.44;5106503;28;20293;-68
2021/04/19 06:49:57;;;;;;;11.80;3.20;;;;;;;24.02;44.68;98559.59;5101061;28;20619;-66
2021/04/19 06:52:24;;;;;;;8.07;2.72;;;;;;;24.04;44.91;98564.78;5098253;27;20213;-69
2021/04/19 06:54:50;;;;;;;5.13;2.28;;;;;;;24.04;43.82;98557.59;5101423;28;20586;-68
2021/04/19 06:57:19;;;;;;;6.60;2.53;;;;;;;24.05;44.30;98564.63;5106167;28;20243;-69
2021/04/19 06:59:46;;;;;;;8.40;2.88;;;;;;;24.06;44.14;98558.25;5103510;28;20267;-68
2021/04/19 07:02:16;;;;;;;12.13;2.90;;;;;;;24.03;44.69;98558.59;5101622;28;20205;-68
2021/04/19 07:04:43;;;;;;;18.00;5.53;;;;;;;23.94;42.24;98567.63;5103025;28;20213;-64
2021/04/19 07:07:14;;;;;;;17.48;4.35;;;;;;;23.89;43.00;98568.09;5103149;28;20990;-67
2021/04/19 07:09:43;;;;;;;11.90;3.33;;;;;;;23.89;43.35;98569.94;5103873;28;20288;-61
2021/04/19 07:12:11;;;;;;;11.88;3.13;;;;;;;23.85;43.95;98561.44;5108137;27;20243;-64
2021/04/19 07:14:40;;;;;;;15.10;3.17;;;;;;;23.85;44.35;98566.78;5108244;27;20224;-59
2021/04/19 07:17:08;;;;;;;12.13;2.97;;;;;;;23.86;43.56;98568.44;5100785;28;20200;-60
2021/04/19 07:19:34;;;;;;;8.45;3.03;;;;;;;23.87;44.21;98570.13;5101189;28;20197;-59
2021/04/19 07:22:00;;;;;;;11.95;2.85;;;;;;;23.87;44.00;98575.47;5105110;28;20240;-55
2021/04/19 07:24:27;;;;;;;10.50;3.08;;;;;;;23.87;43.76;98570.13;5103674;28;20202;-61
2021/04/19 07:26:54;;;;;;;12.32;2.80;;;;;;;23.88;43.94;98577.13;5100551;28;20267;-60
2021/04/19 07:29:20;;;;;;;6.45;2.47;;;;;;;23.88;43.77;98571.78;5104862;27;20223;-60
2021/04/19 07:31:48;;;;;;;13.07;3.15;;;;;;;23.86;44.73;98567.59;5105113;27;20582;-63
2021/04/19 07:34:16;;;;;;;10.82;2.65;;;;;;;23.86;44.82;98562.28;5102757;28;20333;-64
2021/04/19 07:36:48;;;;;;;20.05;2.97;;;;;;;23.89;45.09;98567.28;5091793;27;20281;-64
2021/04/19 07:39:18;;;;;;;5.72;3.08;;;;;;;23.92;46.23;98565.09;5096596;28;20321;-67
2021/04/19 07:41:46;;;;;;;7.75;3.00;;;;;;;23.96;46.58;98569.09;5103842;27;20830;-66
2021/04/19 07:44:32;;;;;;;12.50;3.10;;;;;;;24.01;46.42;98561.44;5100714;27;20276;-67
2021/04/19 07:47:17;;;;;;;6.50;2.20;;;;;;;24.07;45.65;98559.09;5098918;28;20235;-68
2021/04/19 07:49:54;;;;;;;10.55;3.08;;;;;;;24.09;46.51;98549.09;5103891;27;20284;-62
2021/04/19 07:52:21;;;;;;;12.25;2.55;;;;;;;24.12;47.30;98552.25;5103569;28;20638;-66
2021/04/19 07:55:10;;;;;;;11.40;2.47;;;;;;;24.17;46.25;98555.25;5104104;28;20326;-63
2021/04/19 07:57:36;;;;;;;6.32;2.55;;;;;;;24.23;47.31;98555.56;5104544;28;20205;-65
2021/04/19 08:00:03;;;;;;;11.80;2.40;;;;;;;24.24;47.03;98558.06;5104049;28;20225;-65
2021/04/19 08:02:30;;;;;;;5.30;2.30;;;;;;;24.26;46.99;98558.72;5104589;28;20586;-65
2021/04/19 08:04:57;;;;;;;7.45;2.15;;;;;;;24.29;46.44;98555.72;5103525;28;20276;-64
2021/04/19 08:07:24;;;;;;;7.18;2.63;;;;;;;24.32;47.26;98560.75;5106217;28;20197;-66
2021/04/19 08:09:56;;;;;;;4.95;2.15;;;;;;;24.35;46.72;98551.56;5104938;27;20228;-68
2021/04/19 08:12:35;;;;;;;6.35;2.13;;;;;;;24.35;47.32;98547.03;5105788;28;20205;-61
2021/04/19 08:15:03;;;;;;;4.78;2.20;;;;;;;24.37;46.90;98555.72;5104602;27;20197;-67
2021/04/19 08:17:31;;;;;;;11.05;2.50;;;;;;;24.39;47.09;98545.69;5104709;28;20296;-66
2021/04/19 08:19:59;;;;;;;4.03;2.10;;;;;;;24.42;46.46;98546.38;5103733;28;20217;-66
2021/04/19 08:22:27;;;;;;;11.60;2.40;;;;;;;24.42;46.88;98549.88;5089765;28;20212;-67
2021/04/19 08:25:13;;;;;;;5.63;2.00;;;;;;;24.42;46.12;98549.88;5094151;27;20273;-64
2021/04/19 08:27:40;;;;;;;3.20;1.95;;;;;;;24.42;46.30;98549.88;5098020;28;20666;-64
2021/04/19 08:30:08;;;;;;;7.50;2.53;;;;;;;24.44;46.29;98547.84;5108970;27;20303;-64
2021/04/19 08:32:36;;;;;;;6.40;2.08;;;;;;;24.46;46.80;98553.03;5103382;27;20300;-65
2021/04/19 08:35:04;;;;;;;8.20;2.17;;;;;;;24.45;47.15;98552.22;5089727;28;20556;-61
2021/04/19 08:37:31;;;;;;;8.43;2.20;;;;;;;24.44;46.94;98555.03;5103728;27;20205;-66
2021/04/19 08:39:59;;;;;;;4.60;2.08;;;;;;;24.44;46.63;98550.53;5110876;27;20326;-64
2021/04/19 08:42:26;;;;;;;6.57;2.25;;;;;;;24.44;46.83;98555.88;5108931;27;20225;-63
2021/04/19 08:44:56;;;;;;;5.55;2.30;;;;;;;24.43;46.44;98553.38;5104305;27;20614;-63
2021/04/19 08:47:27;;;;;;;4.05;1.80;;;;;;;24.41;46.82;98548.19;5099241;28;20201;-65
2021/04/19 08:49:55;;;;;;;5.15;1.85;;;;;;;24.42;46.63;98562.41;5103218;28;20254;-62
2021/04/19 08:52:22;;;;;;;4.35;1.85;;;;;;;24.41;45.75;98566.06;5108900;27;20238;-68
2021/04/19 08:54:49;;;;;;;8.02;2.50;;;;;;;24.40;45.79;98562.56;5109026;27;20309;-69
2021/04/19 08:57:15;;;;;;;3.35;1.95;;;;;;;24.39;46.74;98568.91;5093159;28;20209;-67
2021/04/19 08:59:44;;;;;;;3.58;2.00;;;;;;;24.34;46.53;98561.41;5101532;28;20240;-64
2021/04/19 09:02:11;;;;;;;5.57;1.85;;;;;;;24.33;46.10;98565.09;5101980;28;20209;-68
2021/04/19 09:04:37;;;;;;;4.25;1.83;;;;;;;24.33;46.07;98565.09;5099874;28;20634;-62
2021/04/19 09:07:04;;;;;;;7.00;2.05;;;;;;;24.32;45.51;98571.44;5103405;28;20288;-67
2021/04/19 09:09:39;;;;;;;11.20;2.13;;;;;;;24.30;46.50;98570.78;5101352;28;20210;-67
2021/04/19 09:12:23;;;;;;;3.80;1.70;;;;;;;24.31;46.52;98566.25;5105244;28;20221;-67
2021/04/19 09:14:50;;;;;;;6.38;2.25;;;;;;;24.29;45.99;98577.09;5103054;28;20956;-63
2021/04/19 09:17:25;;;;;;;6.72;3.05;;;;;;;24.24;44.82;98571.44;5096707;28;20231;-64
2021/04/19 09:19:55;;;;;;;4.85;2.13;;;;;;;24.18;45.88;98574.78;5094127;28;20204;-60
2021/04/19 09:22:23;;;;;;;3.50;1.70;;;;;;;24.18;45.81;98575.63;5104556;28;20537;-60
2021/04/19 09:25:06;;;;;;;9.38;2.55;;;;;;;24.20;45.97;98576.28;5093380;28;20957;-65
2021/04/19 09:27:53;;;;;;;4.53;2.20;;;;;;;23.80;45.54;98574.44;5093798;28;20344;-66
2021/04/19 09:30:34;;;;;;;8.88;1.80;;;;;;;23.60;46.99;98572.06;5105228;28;20290;-65
2021/04/19 09:33:20;;;;;;;4.85;1.88;;;;;;;23.55;45.89;98573.53;5105732;28;20334;-60
2021/04/19 09:35:48;;;;;;;4.63;1.88;;;;;;;23.54;45.96;98580.72;5106944;27;20229;-66
2021/04/19 09:38:33;;;;;;;6.90;2.05;;;;;;;23.58;46.10;98570.53;5100846;28;20213;-62
2021/04/19 09:41:01;;;;;;;6.13;2.10;;;;;;;23.62;46.89;98572.72;5105700;28;20221;-66
2021/04/19 09:43:32;;;;;;;8.93;2.10;;;;;;;23.65;46.55;98567.06;5106114;28;20234;-58
2021/04/19 09:46:00;;;;;;;3.22;1.92;;;;;;;23.64;45.69;98576.06;5109181;27;20294;-65
2021/04/19 09:48:58;;;;;;;4.22;1.65;;;;;;;23.62;46.80;98570.06;5106577;27;20213;-69
2021/04/19 09:51:28;;;;;;;8.30;1.88;;;;;;;23.70;46.08;98571.06;5104574;27;20244;-68
2021/04/19 09:53:59;;;;;;;3.58;1.60;;;;;;;23.67;45.75;98568.75;5109000;27;20206;-61
2021/04/19 09:56:28;;;;;;;2.58;1.50;;;;;;;23.67;46.14;98569.56;5104683;28;20209;-60
2021/04/19 09:58:54;;;;;;;6.40;2.13;;;;;;;23.69;45.43;98567.56;5106504;28;20216;-65
2021/04/19 10:01:21;;;;;;;3.55;1.80;;;;;;;23.74;46.34;98575.06;5105497;27;20225;-64
2021/04/19 10:03:50;;;;;;;4.18;1.70;;;;;;;23.76;46.63;98567.72;5109212;27;20248;-64
2021/04/19 10:06:21;;;;;;;4.28;1.67;;;;;;;23.75;45.51;98571.41;5108157;27;20827;-67
2021/04/19 10:08:49;;;;;;;5.13;1.83;;;;;;;23.72;45.83;98571.75;5101351;27;20291;-65
2021/04/19 10:11:21;;;;;;;4.32;1.40;;;;;;;23.79;45.40;98578.09;5104877;28;20278;-64
2021/04/19 10:13:47;;;;;;;6.25;1.65;;;;;;;23.80;45.72;98567.25;5104200;28;20209;-63
2021/04/19 10:16:16;;;;;;;4.32;1.67;;;;;;;23.84;45.36;98573.13;5105185;27;20229;-64
2021/04/19 10:18:47;;;;;;;5.18;1.88;;;;;;;23.83;45.18;98569.63;5106219;27;20253;-63
2021/04/19 10:21:23;;;;;;;4.45;1.65;;;;;;;23.85;45.51;98571.28;5106867;28;20267;-63
2021/04/19 10:23:49;;;;;;;10.23;2.08;;;;;;;23.87;46.01;98570.13;5104901;28;20730;-64
2021/04/19 10:26:16;;;;;;;5.47;1.45;;;;;;;23.90;45.52;98569.78;5099203;28;21480;-65
2021/04/19 10:28:45;;;;;;;9.73;1.75;;;;;;;23.87;45.57;98570.13;5106195;28;20261;-64
2021/04/19 10:31:16;;;;;;;5.38;1.85;;;;;;;23.82;46.23;98567.13;5105145;28;20227;-63
2021/04/19 10:33:44;;;;;;;7.30;1.90;;;;;;;23.82;46.71;98573.28;5106152;27;20298;-61
2021/04/19 10:36:12;;;;;;;2.65;1.35;;;;;;;23.83;46.54;98561.59;5105094;27;20235;-64
2021/04/19 10:38:38;;;;;;;2.42;1.38;;;;;;;23.85;45.77;98560.59;5093661;28;20627;-62
2021/04/19 10:41:05;;;;;;;4.13;1.60;;;;;;;23.82;46.31;98567.94;5103316;28;20376;-62
2021/04/19 10:43:33;;;;;;;12.93;1.70;;;;;;;23.88;45.79;98565.59;5104019;28;20281;-66
2021/04/19 10:46:00;;;;;;;4.05;1.83;;;;;;;23.83;46.67;98563.44;5097691;28;20672;-61
2021/04/19 10:48:28;;;;;;;4.70;1.40;;;;;;;23.78;45.91;98558.56;5098003;27;20856;-66
2021/04/19 10:50:56;;;;;;;6.03;1.80;;;;;;;23.75;45.68;98560.75;5099049;27;20296;-67
2021/04/19 10:53:35;;;;;;;4.80;1.60;;;;;;;23.74;45.68;98553.72;5103382;27;20278;-66
2021/04/19 10:56:03;;;;;;;8.23;1.60;;;;;;;23.72;46.08;98555.72;5102956;27;20193;-63
2021/04/19 10:58:32;;;;;;;8.48;2.22;;;;;;;23.70;45.75;98555.91;5103981;28;20696;-63
2021/04/19 11:00:59;;;;;;;6.55;1.60;;;;;;;23.70;46.72;98552.38;5103177;28;20304;-66
2021/04/19 11:03:33;;;;;;;5.07;1.65;;;;;;;23.65;46.34;98555.56;5106240;28;20220;-68
2021/04/19 11:06:01;;;;;;;2.53;1.40;;;;;;;23.64;46.63;98549.38;5097440;28;20208;-63
2021/04/19 11:08:45;;;;;;;4.47;1.75;;;;;;;23.65;45.79;98551.03;5102010;27;20618;-62
2021/04/19 11:11:40;;;;;;;3.97;1.52;;;;;;;23.68;46.40;98546.38;5099564;27;20223;-69
2021/04/19 11:14:14;;;;;;;4.28;1.48;;;;;;;23.63;46.54;98552.19;5112228;27;20317;-60
2021/04/19 11:16:51;;;;;;;3.55;1.50;;;;;;;23.60;46.45;98550.72;5102994;27;20270;-64
2021/04/19 11:19:29;;;;;;;3.88;1.33;;;;;;;23.61;45.96;98548.88;5109986;27;20749;-69
2021/04/19 11:21:55;;;;;;;5.55;1.55;;;;;;;23.60;45.46;98547.22;5103560;27;20232;-66
2021/04/19 11:24:21;;;;;;;3.03;1.15;;;;;;;23.61;45.27;98546.19;5097743;28;20205;-67
2021/04/19 11:26:48;;;;;;;2.47;1.30;;;;;;;23.61;45.85;98540.84;5100123;28;20234;-66
2021/04/19 11:29:34;;;;;;;3.45;1.40;;;;;;;23.70;46.02;98547.03;5106950;27;20213;-68
2021/04/19 11:32:00;;;;;;;5.47;2.10;;;;;;;23.73;46.53;98544.91;5109441;27;20773;-67
2021/04/19 11:34:34;;;;;;;2.20;1.20;;;;;;;23.80;46.01;98542.41;5109742;27;20307;-66
2021/04/19 11:37:01;;;;;;;2.25;1.33;;;;;;;23.82;46.37;98540.41;5106760;27;20205;-67
2021/04/19 11:39:31;;;;;;;4.07;1.45;;;;;;;23.82;45.79;98543.91;5098597;27;20489;-62